createdAt,value
2019-02-25T00:02:04.523Z,100.00
2019-02-25T00:04:34.794Z,100.00
2019-02-25T00:07:05.104Z,100.00
2019-02-25T00:09:35.704Z,100.00
2019-02-25T00:12:06.343Z,100.00
2019-02-25T00:14:37.100Z,100.00
2019-02-25T00:17:07.327Z,100.00
2019-02-25T00:19:38.236Z,100.00
2019-02-25T00:22:09.173Z,100.00
2019-02-25T00:24:39.488Z,100.00
2019-02-25T00:27:09.760Z,100.00
2019-02-25T00:29:40.027Z,100.00
2019-02-25T00:32:10.300Z,100.00
2019-02-25T00:34:40.866Z,100.00
2019-02-25T00:37:11.048Z,100.00
2019-02-25T00:39:41.652Z,100.00
2019-02-25T00:42:11.930Z,100.00
2019-02-25T00:44:42.183Z,100.00
2019-02-25T00:47:12.436Z,100.00
2019-02-25T00:49:42.720Z,100.00
2019-02-25T00:52:13.108Z,100.00
2019-02-25T00:54:43.901Z,100.00
2019-02-25T00:57:14.175Z,100.00
2019-02-25T00:59:45.375Z,100.00
2019-02-25T01:02:15.901Z,100.00
2019-02-25T01:04:46.109Z,100.00
2019-02-25T01:07:16.373Z,100.00
2019-02-25T01:09:46.984Z,100.00
2019-02-25T01:12:18.291Z,100.00
2019-02-25T01:14:48.530Z,100.00
2019-02-25T01:17:18.908Z,100.00
2019-02-25T01:19:49.715Z,100.00
2019-02-25T01:22:20.224Z,100.00
2019-02-25T01:24:50.443Z,100.00
2019-02-25T01:27:21.846Z,100.00
2019-02-25T01:29:52.436Z,100.00
2019-02-25T01:32:22.705Z,100.00
2019-02-25T01:34:53.299Z,100.00
2019-02-25T01:37:23.931Z,100.00
2019-02-25T01:39:55.251Z,100.00
2019-02-25T01:42:25.812Z,100.00
2019-02-25T01:44:57.353Z,100.00
2019-02-25T01:47:27.619Z,100.00
2019-02-25T01:49:57.898Z,100.00
2019-02-25T01:52:28.180Z,100.00
2019-02-25T01:54:58.734Z,100.00
2019-02-25T01:57:29.028Z,100.00
2019-02-25T01:59:59.297Z,100.00
2019-02-25T02:02:29.907Z,100.00
2019-02-25T02:05:00.278Z,100.00
2019-02-25T02:07:30.433Z,100.00
2019-02-25T02:10:01.328Z,100.00
2019-02-25T02:12:32.279Z,100.00
2019-02-25T02:15:02.586Z,100.00
2019-02-25T02:17:33.226Z,100.00
2019-02-25T02:20:03.857Z,100.00
2019-02-25T02:22:34.394Z,100.00
2019-02-25T02:25:05.018Z,100.00
2019-02-25T02:27:36.285Z,100.00
2019-02-25T02:30:08.273Z,100.00
2019-02-25T02:32:44.436Z,100.00
2019-02-25T02:35:14.694Z,100.00
2019-02-25T02:37:44.990Z,100.00
2019-02-25T02:40:17.950Z,100.00
2019-02-25T02:42:51.215Z,100.00
2019-02-25T02:45:34.284Z,100.00
2019-02-25T02:48:15.049Z,100.00
2019-02-25T02:50:45.332Z,100.00
2019-02-25T02:53:15.609Z,100.00
2019-02-25T02:55:45.961Z,100.00
2019-02-25T02:58:16.926Z,100.00
2019-02-25T03:00:47.557Z,100.00
2019-02-25T03:03:17.814Z,100.00
2019-02-25T03:05:48.402Z,100.00
2019-02-25T03:08:18.662Z,100.00
2019-02-25T03:10:48.951Z,100.00
2019-02-25T03:13:19.591Z,100.00
2019-02-25T03:15:49.930Z,100.00
2019-02-25T03:19:36.489Z,100.00
2019-02-25T03:22:07.465Z,100.00
2019-02-25T03:24:39.094Z,100.00
2019-02-25T03:27:09.697Z,100.00
2019-02-25T03:29:39.911Z,100.00
2019-02-25T03:32:10.194Z,100.00
2019-02-25T03:34:40.469Z,100.00
2019-02-25T03:37:10.773Z,100.00
2019-02-25T03:39:42.197Z,100.00
2019-02-25T03:42:13.137Z,100.00
2019-02-25T03:44:44.177Z,100.00
2019-02-25T03:47:14.488Z,100.00
2019-02-25T03:49:45.137Z,100.00
2019-02-25T03:52:16.075Z,100.00
2019-02-25T03:54:46.340Z,100.00
2019-02-25T03:57:16.602Z,100.00
2019-02-25T03:59:47.868Z,100.00
2019-02-25T04:02:18.904Z,100.00
2019-02-25T04:04:49.669Z,100.00
2019-02-25T04:07:19.945Z,100.00
2019-02-25T04:09:50.224Z,100.00
2019-02-25T04:12:20.536Z,100.00
2019-02-25T04:14:50.774Z,100.00
2019-02-25T04:17:22.118Z,100.00
2019-02-25T04:19:52.334Z,100.00
2019-02-25T04:22:23.246Z,100.00
2019-02-25T04:24:53.886Z,100.00
2019-02-25T04:27:24.189Z,100.00
2019-02-25T04:29:54.561Z,100.00
2019-02-25T04:32:24.859Z,100.00
2019-02-25T04:34:55.150Z,100.00
2019-02-25T04:37:25.399Z,100.00
2019-02-25T04:39:56.009Z,100.00
2019-02-25T04:42:26.562Z,100.00
2019-02-25T04:44:57.504Z,100.00
2019-02-25T04:47:27.944Z,100.00
2019-02-25T04:49:58.869Z,100.00
2019-02-25T04:52:29.182Z,100.00
2019-02-25T04:55:00.393Z,100.00
2019-02-25T04:57:30.701Z,100.00
2019-02-25T05:00:01.301Z,100.00
2019-02-25T05:02:32.950Z,100.00
2019-02-25T05:05:03.291Z,100.00
2019-02-25T05:07:33.590Z,100.00
2019-02-25T05:10:04.607Z,100.00
2019-02-25T05:12:35.169Z,100.00
2019-02-25T05:15:06.130Z,100.00
2019-02-25T05:17:36.871Z,100.00
2019-02-25T05:20:07.628Z,100.00
2019-02-25T05:22:37.907Z,100.00
2019-02-25T05:25:08.401Z,100.00
2019-02-25T05:27:38.650Z,100.00
2019-02-25T05:30:10.437Z,100.00
2019-02-25T05:32:40.736Z,100.00
2019-02-25T05:35:11.246Z,100.00
2019-02-25T05:37:41.846Z,100.00
2019-02-25T05:40:14.208Z,100.00
2019-02-25T05:42:44.917Z,100.00
2019-02-25T05:45:15.947Z,100.00
2019-02-25T05:47:46.279Z,100.00
2019-02-25T05:50:16.626Z,100.00
2019-02-25T05:52:49.478Z,100.00
2019-02-25T05:55:19.906Z,100.00
2019-02-25T05:57:51.134Z,100.00
2019-02-25T06:00:25.170Z,100.00
2019-02-25T06:02:55.560Z,100.00
2019-02-25T06:05:26.051Z,100.00
2019-02-25T06:07:56.846Z,100.00
2019-02-25T06:10:27.113Z,100.00
2019-02-25T06:12:57.395Z,100.00
2019-02-25T06:15:27.665Z,100.00
2019-02-25T06:17:58.018Z,100.00
2019-02-25T06:20:28.314Z,100.00
2019-02-25T06:23:00.346Z,100.00
2019-02-25T06:25:30.617Z,100.00
2019-02-25T06:28:00.900Z,100.00
2019-02-25T06:30:31.137Z,100.00
2019-02-25T06:33:01.744Z,100.00
2019-02-25T06:35:33.351Z,100.00
2019-02-25T06:38:03.593Z,100.00
2019-02-25T06:40:33.850Z,100.00
2019-02-25T06:43:04.884Z,100.00
2019-02-25T06:45:36.326Z,100.00
2019-02-25T06:48:06.597Z,100.00
2019-02-25T06:50:36.821Z,100.00
2019-02-25T06:53:07.005Z,100.00
2019-02-25T06:55:38.625Z,100.00
2019-02-25T06:58:08.923Z,100.00
2019-02-25T07:00:39.198Z,100.00
2019-02-25T07:03:09.938Z,100.00
2019-02-25T07:05:57.160Z,100.00
2019-02-25T07:08:40.824Z,100.00
2019-02-25T07:11:20.913Z,100.00
2019-02-25T07:14:00.803Z,100.00
2019-02-25T07:16:53.932Z,100.00
2019-02-25T07:19:35.804Z,100.00
2019-02-25T07:22:30.964Z,100.00
2019-02-25T07:25:12.095Z,100.00
2019-02-25T07:28:00.446Z,100.00
2019-02-25T07:30:41.751Z,100.00
2019-02-25T07:33:21.849Z,100.00
2019-02-25T07:36:11.085Z,100.00
2019-02-25T07:38:59.104Z,100.00
2019-02-25T07:41:52.238Z,100.00
2019-02-25T07:44:40.501Z,100.00
2019-02-25T07:47:29.662Z,100.00
2019-02-25T07:50:21.873Z,100.00
2019-02-25T07:53:09.726Z,100.00
2019-02-25T07:56:08.567Z,100.00
2019-02-25T07:58:53.910Z,100.00
2019-02-25T08:01:55.273Z,100.00
2019-02-25T08:04:41.347Z,100.00
2019-02-25T08:07:31.515Z,100.00
2019-02-25T08:10:21.122Z,100.00
2019-02-25T08:13:14.341Z,100.00
2019-02-25T08:16:00.771Z,99.92
2019-02-25T08:18:49.925Z,98.10
2019-02-25T08:21:35.727Z,97.89
2019-02-25T08:24:18.735Z,95.67
2019-02-25T08:27:07.375Z,93.83
2019-02-25T08:29:59.350Z,91.28
2019-02-25T08:32:47.401Z,88.50
2019-02-25T08:36:11.514Z,89.36
2019-02-25T08:38:59.040Z,86.45
2019-02-25T08:41:38.020Z,83.58
2019-02-25T08:44:24.500Z,82.51
2019-02-25T08:47:20.385Z,82.58
2019-02-25T08:49:59.551Z,81.16
2019-02-25T08:52:30.242Z,82.01
2019-02-25T08:55:00.511Z,81.42
2019-02-25T08:57:30.819Z,80.83
2019-02-25T09:00:01.015Z,80.50
2019-02-25T09:02:32.995Z,80.26
2019-02-25T09:05:03.258Z,78.83
2019-02-25T09:07:33.531Z,78.14
2019-02-25T09:10:04.290Z,77.26
2019-02-25T09:12:34.583Z,74.95
2019-02-25T09:15:05.468Z,74.96
2019-02-25T09:17:43.696Z,73.70
2019-02-25T09:20:15.138Z,73.03
2019-02-25T09:22:45.716Z,71.36
2019-02-25T09:25:16.260Z,69.87
2019-02-25T09:27:46.578Z,68.93
2019-02-25T09:30:17.529Z,67.98
2019-02-25T09:32:48.242Z,66.13
2019-02-25T09:35:18.525Z,63.96
2019-02-25T09:37:48.954Z,63.73
2019-02-25T09:40:19.519Z,64.00
2019-02-25T09:42:50.585Z,63.26
2019-02-25T09:45:21.724Z,62.94
2019-02-25T09:47:52.356Z,61.83
2019-02-25T09:50:23.119Z,61.11
2019-02-25T09:52:53.830Z,61.33
2019-02-25T09:55:24.089Z,61.14
2019-02-25T09:57:54.392Z,61.75
2019-02-25T10:00:24.671Z,60.56
2019-02-25T10:02:55.583Z,59.76
2019-02-25T10:05:25.797Z,58.26
2019-02-25T10:07:56.556Z,56.48
2019-02-25T10:10:27.531Z,57.71
2019-02-25T10:12:57.841Z,54.21
2019-02-25T10:15:28.148Z,49.97
2019-02-25T10:17:59.017Z,47.98
2019-02-25T10:20:30.060Z,46.76
2019-02-25T10:23:00.997Z,43.30
2019-02-25T10:25:31.169Z,44.12
2019-02-25T10:28:01.397Z,41.04
2019-02-25T10:30:31.945Z,37.79
2019-02-25T10:33:02.510Z,39.34
2019-02-25T10:35:32.755Z,38.79
2019-02-25T10:38:03.287Z,36.55
2019-02-25T10:40:33.619Z,35.82
2019-02-25T10:43:04.080Z,33.83
2019-02-25T10:45:36.375Z,34.78
2019-02-25T10:48:06.389Z,34.12
2019-02-25T10:50:38.600Z,34.70
2019-02-25T10:53:08.576Z,32.94
2019-02-25T10:55:44.960Z,33.15
2019-02-25T10:58:14.972Z,32.19
2019-02-25T11:00:46.094Z,33.00
2019-02-25T11:03:17.889Z,31.94
2019-02-25T11:05:48.633Z,29.54
2019-02-25T11:08:19.960Z,31.58
2019-02-25T11:11:00.645Z,29.86
2019-02-25T11:13:31.960Z,31.15
2019-02-25T11:16:03.982Z,32.04
2019-02-25T11:18:34.243Z,30.86
2019-02-25T11:21:06.138Z,29.65
2019-02-25T11:23:37.036Z,31.32
2019-02-25T11:26:09.242Z,30.43
2019-02-25T11:28:41.078Z,28.78
2019-02-25T11:31:11.130Z,29.02
2019-02-25T11:33:41.438Z,29.98
2019-02-25T11:36:12.796Z,29.20
2019-02-25T11:38:45.351Z,30.24
2019-02-25T11:41:15.949Z,30.78
2019-02-25T11:43:48.088Z,28.11
2019-02-25T11:46:18.476Z,28.88
2019-02-25T11:48:49.096Z,27.30
2019-02-25T11:51:19.374Z,27.89
2019-02-25T11:53:49.648Z,24.85
2019-02-25T11:56:19.910Z,22.92
2019-02-25T11:58:50.920Z,24.10
2019-02-25T12:01:21.928Z,25.28
2019-02-25T12:03:52.124Z,24.41
2019-02-25T12:06:22.336Z,24.50
2019-02-25T12:08:52.643Z,23.04
2019-02-25T12:11:22.885Z,22.43
2019-02-25T12:13:53.243Z,22.74
2019-02-25T12:16:23.434Z,22.43
2019-02-25T12:18:54.057Z,21.00
2019-02-25T12:21:24.652Z,21.39
2019-02-25T12:23:54.995Z,20.46
2019-02-25T12:26:25.244Z,23.18
2019-02-25T12:28:55.612Z,21.83
2019-02-25T12:31:25.880Z,21.31
2019-02-25T12:33:56.487Z,21.24
2019-02-25T12:36:27.121Z,22.67
2019-02-25T12:38:57.880Z,21.40
2019-02-25T12:41:28.485Z,21.08
2019-02-25T12:43:58.708Z,21.33
2019-02-25T12:46:29.721Z,20.35
2019-02-25T12:49:01.071Z,21.49
2019-02-25T12:51:31.354Z,20.85
2019-02-25T12:54:01.633Z,19.88
2019-02-25T12:56:31.948Z,20.16
2019-02-25T12:59:05.086Z,19.47
2019-02-25T13:01:35.390Z,18.73
2019-02-25T13:04:06.743Z,17.69
2019-02-25T13:06:37.656Z,17.00
2019-02-25T13:09:12.844Z,18.10
2019-02-25T13:11:43.963Z,16.99
2019-02-25T13:14:14.987Z,17.66
2019-02-25T13:16:45.835Z,17.78
2019-02-25T13:19:16.097Z,17.07
2019-02-25T13:21:46.845Z,16.01
2019-02-25T13:24:17.397Z,16.97
2019-02-25T13:26:48.261Z,16.44
2019-02-25T13:29:18.861Z,17.03
2019-02-25T13:31:49.440Z,15.92
2019-02-25T13:34:19.954Z,16.60
2019-02-25T13:36:50.264Z,16.50
2019-02-25T13:39:20.537Z,17.22
2019-02-25T13:41:50.816Z,16.53
2019-02-25T13:44:21.561Z,16.40
2019-02-25T13:46:51.878Z,17.61
2019-02-25T13:49:22.517Z,17.88
2019-02-25T13:51:53.139Z,17.01
2019-02-25T13:54:23.985Z,16.04
2019-02-25T13:56:54.720Z,16.76
2019-02-25T13:59:25.319Z,15.83
2019-02-25T14:01:55.977Z,18.03
2019-02-25T14:04:29.915Z,17.29
2019-02-25T14:07:00.548Z,15.56
2019-02-25T14:09:31.901Z,15.72
2019-02-25T14:12:02.671Z,16.18
2019-02-25T14:14:34.305Z,17.37
2019-02-25T14:17:04.591Z,16.92
2019-02-25T14:19:36.041Z,18.97
2019-02-25T14:22:07.067Z,17.39
2019-02-25T14:24:38.522Z,17.18
2019-02-25T14:27:11.752Z,17.12
2019-02-25T14:29:44.635Z,18.37
2019-02-25T14:32:15.758Z,18.37
2019-02-25T14:34:46.510Z,18.92
2019-02-25T14:37:19.770Z,17.59
2019-02-25T14:39:53.981Z,17.61
2019-02-25T14:42:26.059Z,17.58
2019-02-25T14:44:58.568Z,17.61
2019-02-25T14:47:35.114Z,18.80
2019-02-25T14:50:02.537Z,17.85
2019-02-25T14:52:34.351Z,19.04
2019-02-25T14:55:07.149Z,18.02
2019-02-25T14:57:38.150Z,19.25
2019-02-25T15:00:12.188Z,19.41
2019-02-25T15:02:46.060Z,20.02
2019-02-25T15:05:17.326Z,19.13
2019-02-25T15:07:49.075Z,20.08
2019-02-25T15:10:20.801Z,18.84
2019-02-25T15:12:53.931Z,19.13
2019-02-25T15:15:23.069Z,19.65
2019-02-25T15:17:53.317Z,20.58
2019-02-25T15:20:26.087Z,20.42
2019-02-25T15:22:57.977Z,19.93
2019-02-25T15:25:31.187Z,18.98
2019-02-25T15:28:00.309Z,18.96
2019-02-25T15:30:31.121Z,19.66
2019-02-25T15:33:01.458Z,19.81
2019-02-25T15:35:34.541Z,19.84
2019-02-25T15:38:04.221Z,21.18
2019-02-25T15:40:34.868Z,20.85
2019-02-25T15:43:10.488Z,21.63
2019-02-25T15:45:42.479Z,20.48
2019-02-25T15:48:16.380Z,19.85
2019-02-25T15:50:48.514Z,21.17
2019-02-25T15:53:19.492Z,21.96
2019-02-25T15:55:50.435Z,23.49
2019-02-25T15:58:21.376Z,28.41
2019-02-25T16:00:51.924Z,31.19
2019-02-25T16:03:23.490Z,33.13
2019-02-25T16:05:57.200Z,35.75
2019-02-25T16:08:26.901Z,36.80
2019-02-25T16:11:00.072Z,38.26
2019-02-25T16:13:31.435Z,38.56
2019-02-25T16:16:01.662Z,39.35
2019-02-25T16:18:33.452Z,40.12
2019-02-25T16:21:04.740Z,40.93
2019-02-25T16:23:39.039Z,41.28
2019-02-25T16:26:08.614Z,41.64
2019-02-25T16:28:39.897Z,42.91
2019-02-25T16:31:11.043Z,43.50
2019-02-25T16:33:43.044Z,44.70
2019-02-25T16:36:13.697Z,44.93
2019-02-25T16:38:44.592Z,45.09
2019-02-25T16:41:16.093Z,46.27
2019-02-25T16:43:47.073Z,46.78
2019-02-25T16:46:18.467Z,46.96
2019-02-25T16:48:52.405Z,47.67
2019-02-25T16:51:23.888Z,47.78
2019-02-25T16:53:55.308Z,48.45
2019-02-25T16:56:25.949Z,48.81
2019-02-25T16:58:58.827Z,49.57
2019-02-25T17:01:29.945Z,50.53
2019-02-25T17:04:01.342Z,50.64
2019-02-25T17:06:32.531Z,50.94
2019-02-25T17:09:04.630Z,52.08
2019-02-25T17:11:37.955Z,52.32
2019-02-25T17:14:08.452Z,53.97
2019-02-25T17:16:39.007Z,54.71
2019-02-25T17:19:09.651Z,55.83
2019-02-25T17:21:42.934Z,55.52
2019-02-25T17:24:12.074Z,55.98
2019-02-25T17:26:42.434Z,56.83
2019-02-25T17:29:12.617Z,58.03
2019-02-25T17:31:42.899Z,58.80
2019-02-25T17:34:14.453Z,60.34
2019-02-25T17:36:45.632Z,62.30
2019-02-25T17:39:17.982Z,62.59
2019-02-25T17:41:48.614Z,63.13
2019-02-25T17:44:20.526Z,64.68
2019-02-25T17:46:51.226Z,66.12
2019-02-25T17:49:22.154Z,66.47
2019-02-25T17:51:53.295Z,67.50
2019-02-25T17:54:24.575Z,67.89
2019-02-25T17:56:54.958Z,69.46
2019-02-25T17:59:26.892Z,69.28
2019-02-25T18:01:57.588Z,70.11
2019-02-25T18:04:30.371Z,69.76
2019-02-25T18:07:00.383Z,70.71
2019-02-25T18:09:30.963Z,69.91
2019-02-25T18:12:02.190Z,70.28
2019-02-25T18:14:33.491Z,70.06
2019-02-25T18:17:05.980Z,70.35
2019-02-25T18:19:35.711Z,70.89
2019-02-25T18:22:06.310Z,71.74
2019-02-25T18:24:36.624Z,72.31
2019-02-25T18:27:09.239Z,72.36
2019-02-25T18:29:41.370Z,74.18
2019-02-25T18:32:12.307Z,74.05
2019-02-25T18:34:43.424Z,75.41
2019-02-25T18:37:15.487Z,75.51
2019-02-25T18:39:47.422Z,75.34
2019-02-25T18:42:20.293Z,75.44
2019-02-25T18:44:51.849Z,76.12
2019-02-25T18:47:25.033Z,76.27
2019-02-25T18:49:56.581Z,77.49
2019-02-25T18:52:29.663Z,77.97
2019-02-25T18:55:02.799Z,78.31
2019-02-25T18:57:34.144Z,79.25
2019-02-25T19:00:06.983Z,79.30
2019-02-25T19:02:40.265Z,79.78
2019-02-25T19:05:14.010Z,81.11
2019-02-25T19:07:44.539Z,81.87
2019-02-25T19:10:17.949Z,82.84
2019-02-25T19:12:49.637Z,83.42
2019-02-25T19:15:22.423Z,83.90
2019-02-25T19:17:54.386Z,84.92
2019-02-25T19:20:25.451Z,85.38
2019-02-25T19:23:00.491Z,86.18
2019-02-25T19:25:29.039Z,86.45
2019-02-25T19:27:59.334Z,87.09
2019-02-25T19:30:31.787Z,87.81
2019-02-25T19:33:10.888Z,88.44
2019-02-25T19:35:36.087Z,89.40
2019-02-25T19:38:07.846Z,90.08
2019-02-25T19:40:40.522Z,90.92
2019-02-25T19:43:11.848Z,90.96
2019-02-25T19:45:43.203Z,90.92
2019-02-25T19:48:14.535Z,91.85
2019-02-25T19:50:51.168Z,91.46
2019-02-25T19:53:20.288Z,91.82
2019-02-25T19:55:51.790Z,91.27
2019-02-25T19:58:24.218Z,92.04
2019-02-25T20:00:58.408Z,92.70
2019-02-25T20:03:28.983Z,93.22
2019-02-25T20:05:58.951Z,94.67
2019-02-25T20:08:29.282Z,95.03
2019-02-25T20:10:59.973Z,94.83
2019-02-25T20:13:30.621Z,94.93
2019-02-25T20:16:07.868Z,95.73
2019-02-25T20:18:35.526Z,96.35
2019-02-25T20:21:08.048Z,96.77
2019-02-25T20:23:38.198Z,98.22
2019-02-25T20:26:11.334Z,98.14
2019-02-25T20:28:41.263Z,98.57
2019-02-25T20:31:14.549Z,99.64
2019-02-25T20:33:45.573Z,99.45
2019-02-25T20:36:19.268Z,99.84
2019-02-25T20:38:49.159Z,100.00
2019-02-25T20:41:21.893Z,100.00
2019-02-25T20:43:55.969Z,100.00
2019-02-25T20:46:26.221Z,100.00
2019-02-25T20:48:57.846Z,100.00
2019-02-25T20:51:29.892Z,100.00
2019-02-25T20:54:01.815Z,100.00
2019-02-25T20:56:33.267Z,100.00
2019-02-25T20:59:06.144Z,100.00
2019-02-25T21:01:39.546Z,100.00
2019-02-25T21:04:11.334Z,100.00
2019-02-25T21:06:42.267Z,100.00
2019-02-25T21:09:14.451Z,100.00
2019-02-25T21:11:45.449Z,100.00
2019-02-25T21:14:16.114Z,100.00
2019-02-25T21:16:46.471Z,100.00
2019-02-25T21:19:19.901Z,100.00
2019-02-25T21:21:52.795Z,100.00
2019-02-25T21:24:21.634Z,100.00
2019-02-25T21:26:55.190Z,100.00
2019-02-25T21:29:26.887Z,100.00
2019-02-25T21:31:58.767Z,100.00
2019-02-25T21:34:30.736Z,100.00
2019-02-25T21:37:02.959Z,100.00
2019-02-25T21:39:34.406Z,100.00
2019-02-25T21:42:06.332Z,100.00
2019-02-25T21:44:37.766Z,100.00
2019-02-25T21:47:08.878Z,100.00
2019-02-25T21:49:40.533Z,100.00
2019-02-25T21:52:13.642Z,100.00
2019-02-25T21:54:45.086Z,100.00
2019-02-25T21:57:16.014Z,100.00
2019-02-25T21:59:47.054Z,100.00
2019-02-25T22:02:17.604Z,100.00
2019-02-25T22:04:49.735Z,100.00
2019-02-25T22:07:24.345Z,100.00
2019-02-25T22:09:52.344Z,100.00
2019-02-25T22:12:22.659Z,100.00
2019-02-25T22:14:54.805Z,100.00
2019-02-25T22:17:25.144Z,100.00
2019-02-25T22:19:56.007Z,100.00
2019-02-25T22:22:28.859Z,100.00
2019-02-25T22:25:06.071Z,100.00
2019-02-25T22:27:36.943Z,100.00
2019-02-25T22:30:09.314Z,100.00
2019-02-25T22:32:40.881Z,100.00
2019-02-25T22:35:14.913Z,100.00
2019-02-25T22:37:46.902Z,100.00
2019-02-25T22:40:17.184Z,100.00
2019-02-25T22:42:50.432Z,100.00
2019-02-25T22:45:21.266Z,100.00
2019-02-25T22:47:52.275Z,100.00
2019-02-25T22:50:22.498Z,100.00
2019-02-25T22:52:58.198Z,100.00
2019-02-25T22:55:24.942Z,100.00
2019-02-25T22:57:55.209Z,100.00
2019-02-25T23:00:44.133Z,100.00
2019-02-25T23:03:19.763Z,100.00
2019-02-25T23:05:50.881Z,100.00
2019-02-25T23:08:23.416Z,100.00
2019-02-25T23:10:54.589Z,100.00
2019-02-25T23:13:27.483Z,100.00
2019-02-25T23:15:57.433Z,100.00
2019-02-25T23:18:28.275Z,100.00
2019-02-25T23:21:01.250Z,100.00
2019-02-25T23:23:32.899Z,100.00
2019-02-25T23:26:03.435Z,100.00
2019-02-25T23:28:34.476Z,100.00
2019-02-25T23:31:05.722Z,100.00
2019-02-25T23:33:38.190Z,100.00
2019-02-25T23:36:08.368Z,100.00
2019-02-25T23:38:40.788Z,100.00
2019-02-25T23:41:12.781Z,100.00
2019-02-25T23:43:44.977Z,100.00
2019-02-25T23:46:15.954Z,100.00
2019-02-25T23:48:47.521Z,100.00
2019-02-25T23:51:23.071Z,100.00
2019-02-25T23:53:55.904Z,100.00
2019-02-25T23:56:27.433Z,100.00
2019-02-25T23:58:59.054Z,100.00
